Terminal Aerodrome Forecast
Issued by NWS

Home | Current Version | Previous Version | Text Only | Print | Product List | Glossary On
Versions: 1 2 3 4 5 6 7 8 9 10 11 12 13
000
FTUS43 KBIS 012300
TAFJMS
TAF
KJMS 012330Z 0200/0224 29018G28KT P6SM SCT100
     FM020200 27013KT P6SM SCT100
     FM021400 28022G32KT P6SM SCT035
     FM021700 30026G36KT P6SM BKN035=

USA.gov is the U.S. government's official web portal to all federal, state and local government web resources and services.